Time;durP1;ratioP1;P1;durP2;ratioP2;P2;SDS_P1;SDS_P2;PMS_P1;PMS_P2;Temp;Humidity;BMP_temperature;BMP_pressure;BME280_temperature;BME280_humidity;BME280_pressure;Samples;Min_cycle;Max_cycle;Signal;HPM_P1;HPM_P2
2023/05/10 00:00:20;;;;;;;0.40;0.40;;;;;;;12.60;100.00;96265.19;29395;206;63008;-57
2023/05/10 00:00:54;;;;;;;0.40;0.40;;;;;;;12.58;100.00;96264.69;29395;254;63004;-58
2023/05/10 00:01:26;;;;;;;0.40;0.40;;;;;;;12.59;100.00;96273.66;29395;257;63009;-56
2023/05/10 00:01:57;;;;;;;0.40;0.40;;;;;;;12.56;100.00;96266.94;29395;206;63005;-57
2023/05/10 00:02:28;;;;;;;0.40;0.40;;;;;;;12.59;100.00;96276.38;29395;205;63009;-56
2023/05/10 00:03:00;;;;;;;0.68;0.68;;;;;;;12.64;100.00;96273.50;29394;197;64009;-56
2023/05/10 00:03:31;;;;;;;0.40;0.40;;;;;;;12.62;100.00;96271.09;29394;198;64013;-58
2023/05/10 00:04:03;;;;;;;0.40;0.40;;;;;;;12.59;100.00;96271.75;29395;228;63005;-57
2023/05/10 00:04:34;;;;;;;0.40;0.40;;;;;;;12.57;100.00;96274.00;29395;217;63009;-57
2023/05/10 00:05:07;;;;;;;0.40;0.40;;;;;;;12.55;100.00;96270.78;29395;232;63016;-57
2023/05/10 00:05:40;;;;;;;0.40;0.40;;;;;;;12.51;100.00;96269.81;29395;223;63009;-56
2023/05/10 00:06:12;;;;;;;0.50;0.50;;;;;;;12.49;100.00;96269.34;29395;250;63004;-57
2023/05/10 00:06:43;;;;;;;0.40;0.40;;;;;;;12.47;100.00;96268.09;29395;213;63004;-58
2023/05/10 00:07:17;;;;;;;0.50;0.50;;;;;;;12.44;100.00;96271.44;29395;212;63004;-56
2023/05/10 00:07:48;;;;;;;0.40;0.40;;;;;;;12.40;100.00;96266.63;29395;235;63008;-58
2023/05/10 00:08:19;;;;;;;0.50;0.50;;;;;;;12.38;100.00;96276.22;29395;221;63004;-57
2023/05/10 00:08:52;;;;;;;0.40;0.40;;;;;;;12.36;100.00;96278.47;29394;253;64014;-57
2023/05/10 00:09:23;;;;;;;0.50;0.50;;;;;;;12.39;100.00;96277.84;29395;221;63005;-58
2023/05/10 00:09:56;;;;;;;0.50;0.50;;;;;;;12.49;100.00;96277.50;29395;207;63009;-56
2023/05/10 00:10:28;;;;;;;0.50;0.50;;;;;;;12.49;100.00;96282.94;29395;224;63017;-59
2023/05/10 00:10:59;;;;;;;0.50;0.50;;;;;;;12.48;100.00;96286.78;29395;222;63009;-59
2023/05/10 00:11:30;;;;;;;0.50;0.50;;;;;;;12.46;100.00;96272.72;29395;286;63005;-57
2023/05/10 00:12:01;;;;;;;0.50;0.50;;;;;;;12.43;100.00;96278.81;29395;238;63009;-56
2023/05/10 00:12:33;;;;;;;0.50;0.50;;;;;;;12.41;100.00;96281.03;29395;205;63004;-56
2023/05/10 00:13:04;;;;;;;0.50;0.50;;;;;;;12.39;100.00;96281.34;29395;239;63009;-57
2023/05/10 00:13:35;;;;;;;0.40;0.40;;;;;;;12.37;100.00;96274.63;29395;244;63004;-58
2023/05/10 00:14:06;;;;;;;0.50;0.50;;;;;;;12.38;100.00;96276.22;29394;227;64013;-57
2023/05/10 00:14:38;;;;;;;0.40;0.40;;;;;;;12.36;100.00;96270.31;29395;275;63004;-57
2023/05/10 00:15:10;;;;;;;0.47;0.47;;;;;;;12.34;100.00;96280.72;29395;245;63009;-58
2023/05/10 00:15:42;;;;;;;0.50;0.50;;;;;;;12.33;100.00;96276.38;29395;271;63005;-57
2023/05/10 00:16:13;;;;;;;0.50;0.50;;;;;;;12.32;100.00;96277.50;29395;259;63009;-57
2023/05/10 00:16:45;;;;;;;0.50;0.50;;;;;;;12.31;100.00;96273.97;29395;246;63005;-57
2023/05/10 00:17:16;;;;;;;0.40;0.40;;;;;;;12.34;100.00;96283.44;29395;221;63009;-56
2023/05/10 00:17:48;;;;;;;0.40;0.40;;;;;;;12.35;100.00;96276.88;29395;221;63005;-57
2023/05/10 00:18:19;;;;;;;0.45;0.45;;;;;;;12.34;100.00;96276.06;29395;229;63009;-58
2023/05/10 00:18:50;;;;;;;0.40;0.40;;;;;;;12.33;100.00;96279.09;29395;250;63005;-58
2023/05/10 00:19:21;;;;;;;0.50;0.50;;;;;;;12.32;100.00;96277.50;29394;202;64013;-58
2023/05/10 00:19:53;;;;;;;0.40;0.40;;;;;;;12.33;100.00;96274.47;29395;224;63004;-57
2023/05/10 00:20:27;;;;;;;0.40;0.40;;;;;;;12.32;100.00;96274.78;29395;204;63009;-58
2023/05/10 00:20:58;;;;;;;0.50;0.50;;;;;;;12.31;100.00;96278.62;29395;202;63004;-58
2023/05/10 00:21:30;;;;;;;0.47;0.47;;;;;;;12.31;100.00;96273.97;29395;244;63009;-58
2023/05/10 00:22:01;;;;;;;0.40;0.40;;;;;;;12.33;100.00;96274.47;29395;197;63004;-59
2023/05/10 00:22:33;;;;;;;0.45;0.45;;;;;;;12.32;100.00;96274.78;29395;254;63008;-56
2023/05/10 00:23:05;;;;;;;0.40;0.40;;;;;;;12.37;100.00;96275.44;29395;275;63005;-57
2023/05/10 00:23:36;;;;;;;0.40;0.40;;;;;;;12.38;100.00;96270.78;29395;268;63005;-57
2023/05/10 00:24:08;;;;;;;0.40;0.40;;;;;;;12.37;100.00;96275.44;29394;212;64005;-59
2023/05/10 00:24:39;;;;;;;0.40;0.40;;;;;;;12.40;100.00;96269.34;29394;204;64013;-58
2023/05/10 00:25:14;;;;;;;0.40;0.40;;;;;;;12.41;100.00;96275.59;29395;277;63005;-56
2023/05/10 00:25:46;;;;;;;0.40;0.40;;;;;;;12.43;100.00;96269.84;29395;285;63009;-57
2023/05/10 00:26:21;;;;;;;0.40;0.40;;;;;;;12.42;100.00;96266.31;29395;207;63005;-59
2023/05/10 00:26:52;;;;;;;0.40;0.40;;;;;;;12.39;100.00;96272.41;29395;222;63008;-57
2023/05/10 00:27:23;;;;;;;0.50;0.50;;;;;;;12.36;100.00;96273.03;29395;215;63004;-58
2023/05/10 00:27:57;;;;;;;0.50;0.50;;;;;;;12.38;100.00;96273.50;29395;215;63009;-57
2023/05/10 00:28:29;;;;;;;0.50;0.50;;;;;;;12.34;100.00;96270.62;29395;196;63004;-57
2023/05/10 00:29:00;;;;;;;0.50;0.50;;;;;;;12.33;100.00;96276.38;29394;213;64013;-57
2023/05/10 00:29:35;;;;;;;0.40;0.40;;;;;;;12.32;100.00;96274.78;29395;226;63004;-57
2023/05/10 00:30:07;;;;;;;0.40;0.40;;;;;;;12.29;100.00;96275.41;29394;248;64008;-57
2023/05/10 00:30:39;;;;;;;0.40;0.40;;;;;;;12.27;100.00;96274.94;29394;198;64005;-57
2023/05/10 00:31:10;;;;;;;0.40;0.40;;;;;;;12.24;100.00;96276.38;29395;203;63026;-56
2023/05/10 00:31:41;;;;;;;0.40;0.40;;;;;;;12.21;100.00;96281.63;29395;199;63005;-57
2023/05/10 00:32:13;;;;;;;0.40;0.40;;;;;;;12.18;100.00;96265.97;29395;242;63009;-56
2023/05/10 00:32:45;;;;;;;0.40;0.40;;;;;;;12.17;100.00;96275.22;29395;241;63020;-60
2023/05/10 00:33:16;;;;;;;0.50;0.50;;;;;;;12.19;100.00;96278.44;29395;214;63009;-56
2023/05/10 00:33:47;;;;;;;0.40;0.40;;;;;;;12.19;100.00;96275.72;29395;222;63005;-57
2023/05/10 00:34:18;;;;;;;0.40;0.40;;;;;;;12.20;100.00;96267.25;29394;203;64013;-60
2023/05/10 00:34:50;;;;;;;0.40;0.40;;;;;;;12.27;100.00;96272.22;29395;203;63006;-57
2023/05/10 00:35:22;;;;;;;0.40;0.40;;;;;;;12.31;100.00;96275.91;29395;233;63024;-61
2023/05/10 00:35:53;;;;;;;0.40;0.40;;;;;;;12.33;100.00;96274.47;29395;212;63004;-56
2023/05/10 00:36:24;;;;;;;0.40;0.40;;;;;;;12.30;100.00;96272.38;29395;222;63013;-57
2023/05/10 00:36:56;;;;;;;0.40;0.40;;;;;;;12.26;100.00;96267.88;29395;209;63004;-58
2023/05/10 00:37:31;;;;;;;0.40;0.40;;;;;;;12.22;100.00;96272.38;29395;205;63008;-57
2023/05/10 00:38:02;;;;;;;0.40;0.40;;;;;;;12.19;100.00;96267.56;29395;235;63005;-58
2023/05/10 00:38:34;;;;;;;0.40;0.40;;;;;;;12.14;100.00;96270.41;29395;239;63009;-56
2023/05/10 00:39:05;;;;;;;0.40;0.40;;;;;;;12.12;100.00;96272.69;29394;245;64009;-56
2023/05/10 00:39:37;;;;;;;0.40;0.40;;;;;;;12.12;100.00;96278.12;29395;228;63009;-57
2023/05/10 00:40:09;;;;;;;0.47;0.47;;;;;;;12.20;100.00;96277.31;29395;203;63005;-58
2023/05/10 00:40:41;;;;;;;0.40;0.40;;;;;;;12.20;100.00;96274.59;29395;225;63009;-58
2023/05/10 00:41:13;;;;;;;0.40;0.40;;;;;;;12.14;100.00;96270.41;29395;203;63005;-57
2023/05/10 00:41:45;;;;;;;0.50;0.50;;;;;;;12.11;100.00;96276.53;29395;241;63009;-59
2023/05/10 00:42:16;;;;;;;0.40;0.40;;;;;;;12.14;100.00;96276.66;29395;206;63004;-58
2023/05/10 00:42:47;;;;;;;0.50;0.50;;;;;;;12.12;100.00;96278.12;29395;219;63009;-57
2023/05/10 00:43:18;;;;;;;0.40;0.40;;;;;;;12.10;100.00;96275.72;29394;218;64009;-56
2023/05/10 00:43:50;;;;;;;0.50;0.50;;;;;;;12.11;100.00;96271.09;29395;269;63009;-56
2023/05/10 00:44:21;;;;;;;0.50;0.50;;;;;;;12.10;100.00;96274.91;29395;202;63004;-57
2023/05/10 00:44:52;;;;;;;0.40;0.40;;;;;;;12.06;100.00;96272.03;29395;196;63008;-57
2023/05/10 00:45:24;;;;;;;0.40;0.40;;;;;;;12.03;100.00;96281.63;29395;202;63005;-57
2023/05/10 00:45:55;;;;;;;0.40;0.40;;;;;;;12.00;100.00;96281.44;29394;259;64009;-58
2023/05/10 00:46:27;;;;;;;0.50;0.50;;;;;;;11.95;100.00;96270.72;29395;252;63005;-56
2023/05/10 00:47:00;;;;;;;0.50;0.50;;;;;;;11.92;100.00;96277.59;29395;334;63024;-57
2023/05/10 00:47:32;;;;;;;0.40;0.40;;;;;;;11.90;100.00;96282.53;29395;199;63005;-57
2023/05/10 00:48:04;;;;;;;0.50;0.50;;;;;;;11.88;100.00;96273.91;29395;208;63009;-56
2023/05/10 00:48:36;;;;;;;0.50;0.50;;;;;;;11.88;100.00;96273.91;29394;257;64009;-57
2023/05/10 00:49:07;;;;;;;0.50;0.50;;;;;;;11.93;100.00;96276.47;29395;269;63009;-57
2023/05/10 00:49:40;;;;;;;0.40;0.40;;;;;;;11.99;100.00;96280.66;29395;227;63004;-56
2023/05/10 00:50:11;;;;;;;0.40;0.40;;;;;;;11.99;100.00;96280.66;29395;222;63009;-57
2023/05/10 00:50:43;;;;;;;0.40;0.40;;;;;;;12.00;100.00;96281.44;29395;204;63004;-57
2023/05/10 00:51:14;;;;;;;0.40;0.40;;;;;;;11.96;100.00;96281.28;29395;197;63009;-56
2023/05/10 00:51:46;;;;;;;0.40;0.40;;;;;;;11.93;100.00;96279.19;29395;208;63004;-57
2023/05/10 00:52:17;;;;;;;0.40;0.40;;;;;;;11.91;100.00;96278.69;29395;273;63008;-57
2023/05/10 00:52:49;;;;;;;0.50;0.50;;;;;;;11.95;100.00;96287.03;29395;238;63004;-58
2023/05/10 00:53:21;;;;;;;0.40;0.40;;;;;;;11.94;100.00;96278.06;29394;225;64014;-58
2023/05/10 00:53:54;;;;;;;0.40;0.40;;;;;;;12.04;100.00;96282.44;29395;282;63005;-54
2023/05/10 00:54:25;;;;;;;0.40;0.40;;;;;;;12.06;100.00;96281.00;29395;202;63009;-59
2023/05/10 00:54:57;;;;;;;0.40;0.40;;;;;;;12.07;100.00;96285.31;29395;200;63005;-57
2023/05/10 00:55:29;;;;;;;0.40;0.40;;;;;;;12.08;100.00;96284.19;29395;230;63009;-57
2023/05/10 00:56:03;;;;;;;0.40;0.40;;;;;;;12.12;100.00;96287.09;29395;216;63005;-67
2023/05/10 00:56:34;;;;;;;0.45;0.45;;;;;;;12.15;100.00;96293.78;29395;232;63009;-61
2023/05/10 00:57:05;;;;;;;0.50;0.50;;;;;;;12.16;100.00;96290.75;29395;207;63004;-57
2023/05/10 00:57:36;;;;;;;0.43;0.43;;;;;;;12.13;100.00;96279.72;29395;238;63009;-58
2023/05/10 00:58:08;;;;;;;0.40;0.40;;;;;;;12.08;100.00;96289.63;29395;246;63004;-57
2023/05/10 00:58:40;;;;;;;0.40;0.40;;;;;;;12.01;100.00;96286.56;29394;262;64013;-56
2023/05/10 00:59:12;;;;;;;0.40;0.40;;;;;;;11.94;100.00;96294.38;29395;224;63004;-59
2023/05/10 00:59:43;;;;;;;0.40;0.40;;;;;;;11.90;100.00;96285.25;29395;230;63008;-58
2023/05/10 01:00:18;;;;;;;0.43;0.43;;;;;;;11.86;100.00;96292.44;29395;204;63004;-59
2023/05/10 01:00:52;;;;;;;0.40;0.40;;;;;;;11.91;100.00;96295.00;29395;281;63009;-59
2023/05/10 01:01:23;;;;;;;0.40;0.40;;;;;;;11.86;100.00;96287.00;29395;260;63005;-58
2023/05/10 01:01:54;;;;;;;0.50;0.50;;;;;;;11.86;100.00;96286.19;29395;249;63009;-57
2023/05/10 01:02:26;;;;;;;0.50;0.50;;;;;;;11.84;100.00;96291.94;29395;251;63005;-57
2023/05/10 01:03:02;;;;;;;0.40;0.40;;;;;;;11.81;100.00;96287.16;29395;258;63009;-57
2023/05/10 01:03:33;;;;;;;0.40;0.40;;;;;;;11.76;100.00;96292.72;29395;242;63017;-57
2023/05/10 01:04:05;;;;;;;0.50;0.50;;;;;;;11.84;100.00;96294.66;29394;211;64013;-61
2023/05/10 01:04:37;;;;;;;0.50;0.50;;;;;;;11.85;100.00;96290.84;29395;239;63004;-58
2023/05/10 01:05:09;;;;;;;0.50;0.50;;;;;;;11.83;100.00;96294.97;29395;196;63009;-58
2023/05/10 01:05:41;;;;;;;0.50;0.50;;;;;;;11.82;100.00;96294.19;29394;206;64009;-57
2023/05/10 01:06:13;;;;;;;0.47;0.47;;;;;;;11.78;100.00;96285.09;29394;218;64013;-56
2023/05/10 01:06:45;;;;;;;0.50;0.50;;;;;;;11.74;100.00;96294.94;29395;202;63004;-57
2023/05/10 01:07:17;;;;;;;0.50;0.50;;;;;;;11.71;100.00;96290.94;29395;202;63009;-57
2023/05/10 01:07:48;;;;;;;0.50;0.50;;;;;;;11.74;100.00;96294.94;29395;219;63005;-57
2023/05/10 01:08:23;;;;;;;0.40;0.40;;;;;;;11.73;100.00;96296.87;29395;236;63017;-58
2023/05/10 01:08:55;;;;;;;0.40;0.40;;;;;;;11.73;100.00;96298.78;29395;251;63005;-60
2023/05/10 01:09:27;;;;;;;0.40;0.40;;;;;;;11.81;100.00;96294.50;29395;211;63009;-57
2023/05/10 01:09:59;;;;;;;0.50;0.50;;;;;;;11.82;100.00;96296.91;29395;264;63005;-57
2023/05/10 01:10:31;;;;;;;0.43;0.43;;;;;;;11.80;100.00;96293.69;29395;213;63009;-56
2023/05/10 01:11:02;;;;;;;0.50;0.50;;;;;;;11.78;100.00;96297.88;29395;209;63005;-57
2023/05/10 01:11:36;;;;;;;0.40;0.40;;;;;;;11.74;100.00;96294.94;29394;246;64013;-57
2023/05/10 01:12:08;;;;;;;0.40;0.40;;;;;;;11.68;100.00;96299.72;29395;229;63004;-58
2023/05/10 01:12:41;;;;;;;0.50;0.50;;;;;;;11.69;100.00;96298.59;29395;223;63004;-57
2023/05/10 01:13:16;;;;;;;0.40;0.40;;;;;;;11.71;100.00;96301.00;29395;216;63004;-57
2023/05/10 01:13:55;;;;;;;0.50;0.50;;;;;;;11.70;100.00;96296.69;29395;209;63009;-59
2023/05/10 01:14:28;;;;;;;0.50;0.50;;;;;;;11.80;100.00;96299.13;29395;199;63004;-55
2023/05/10 01:15:02;;;;;;;0.40;0.40;;;;;;;11.79;100.00;96297.53;29395;225;63009;-56
2023/05/10 01:15:35;;;;;;;0.50;0.50;;;;;;;11.78;100.00;96301.38;29395;220;63016;-58
2023/05/10 01:16:07;;;;;;;0.40;0.40;;;;;;;11.83;100.00;96301.22;29395;198;63022;-58
2023/05/10 01:16:41;;;;;;;0.50;0.50;;;;;;;11.79;100.00;96294.81;29394;220;64009;-60
2023/05/10 01:17:13;;;;;;;0.47;0.47;;;;;;;11.86;100.00;96292.44;29395;249;63009;-59
2023/05/10 01:17:47;;;;;;;0.40;0.40;;;;;;;11.83;100.00;96292.25;29395;229;63005;-58
2023/05/10 01:18:21;;;;;;;0.50;0.50;;;;;;;11.77;100.00;96299.00;29395;218;63009;-55
2023/05/10 01:18:53;;;;;;;0.40;0.40;;;;;;;11.70;100.00;96299.41;29395;203;63004;-56
2023/05/10 01:19:28;;;;;;;0.40;0.40;;;;;;;11.67;100.00;96294.59;29395;212;63004;-58
2023/05/10 01:19:59;;;;;;;0.50;0.50;;;;;;;11.73;100.00;96299.59;29395;250;63012;-56
2023/05/10 01:20:39;;;;;;;0.40;0.40;;;;;;;11.79;100.00;96300.25;29395;203;63009;-56
2023/05/10 01:21:53;;;;;;;0.50;0.50;;;;;;;11.74;100.00;96295.75;29417;218;63004;-56
2023/05/10 01:23:07;;;;;;;0.50;0.50;;;;;;;11.64;100.00;96292.50;29394;330;64014;-57
2023/05/10 01:24:24;;;;;;;0.40;0.40;;;;;;;11.62;100.00;96298.25;29395;211;63005;-58
2023/05/10 01:25:47;;;;;;;0.50;0.50;;;;;;;11.60;100.00;96295.03;29395;210;63009;-58
2023/05/10 01:26:58;;;;;;;0.50;0.50;;;;;;;11.55;100.00;96302.53;29395;203;63005;-57
2023/05/10 01:28:36;;;;;;;0.50;0.50;;;;;;;11.51;100.00;96306.97;29394;227;64013;-57
2023/05/10 01:29:47;;;;;;;0.50;0.50;;;;;;;11.55;100.00;96314.19;29395;215;63004;-60
2023/05/10 01:31:05;;;;;;;0.50;0.50;;;;;;;11.56;100.00;96306.84;29394;233;64009;-58
2023/05/10 01:32:23;;;;;;;0.50;0.50;;;;;;;11.56;100.00;96306.84;29394;211;64009;-58
2023/05/10 01:33:41;;;;;;;0.50;0.50;;;;;;;11.53;100.00;96315.62;29395;257;63018;-57
2023/05/10 01:34:19;;;;;;;0.50;0.50;;;;;;;11.51;100.00;96317.84;29394;270;64009;-57
2023/05/10 01:35:27;;;;;;;0.50;0.50;;;;;;;11.48;100.00;96329.34;29395;204;63009;-57
2023/05/10 01:36:30;;;;;;;0.50;0.50;;;;;;;11.43;100.00;96324.88;29395;227;63004;-57
2023/05/10 01:37:09;;;;;;;0.50;0.50;;;;;;;11.41;100.00;96325.16;29395;393;63008;-59
2023/05/10 01:37:59;;;;;;;0.50;0.50;;;;;;;11.41;100.00;96325.16;29395;214;63005;-58
2023/05/10 01:39:03;;;;;;;0.50;0.50;;;;;;;11.39;100.00;96327.41;29395;242;63009;-57
2023/05/10 01:39:47;;;;;;;0.50;0.50;;;;;;;11.38;100.00;96325.78;29394;216;64009;-57
2023/05/10 01:40:37;;;;;;;0.50;0.50;;;;;;;11.36;100.00;96311.72;29395;216;63009;-58
2023/05/10 01:41:45;;;;;;;0.50;0.50;;;;;;;11.37;100.00;96318.75;29395;215;63011;-57
2023/05/10 01:42:28;;;;;;;0.50;0.50;;;;;;;11.37;100.00;96328.81;29395;269;63014;-57
2023/05/10 01:43:08;;;;;;;0.50;0.50;;;;;;;11.36;100.00;96321.78;29395;220;63004;-57
2023/05/10 01:44:23;;;;;;;0.50;0.50;;;;;;;11.33;100.00;96323.22;29394;206;64009;-57
2023/05/10 01:45:12;;;;;;;0.50;0.50;;;;;;;11.32;100.00;96321.59;29394;202;64014;-57
2023/05/10 01:45:58;;;;;;;0.50;0.50;;;;;;;11.30;100.00;96323.81;29395;211;63005;-59
2023/05/10 01:46:38;;;;;;;0.50;0.50;;;;;;;11.30;100.00;96328.47;29395;264;63009;-58
2023/05/10 01:47:13;;;;;;;0.50;0.50;;;;;;;11.29;100.00;96327.66;29395;300;63005;-59
2023/05/10 01:47:48;;;;;;;0.50;0.50;;;;;;;11.29;100.00;96322.22;29394;254;64013;-58
2023/05/10 01:48:21;;;;;;;0.50;0.50;;;;;;;11.28;100.00;96334.19;29395;236;63010;-58
2023/05/10 01:48:56;;;;;;;0.50;0.50;;;;;;;11.25;100.00;96326.66;29395;233;63009;-57
2023/05/10 01:49:36;;;;;;;0.47;0.47;;;;;;;11.24;100.00;96327.78;29395;202;63004;-57
2023/05/10 01:50:17;;;;;;;0.50;0.50;;;;;;;11.25;100.00;96334.81;29417;210;63009;-58
2023/05/10 01:50:51;;;;;;;0.50;0.50;;;;;;;11.27;100.00;96329.06;29417;206;63004;-59
2023/05/10 01:51:25;;;;;;;0.43;0.43;;;;;;;11.27;100.00;96331.78;29395;214;63008;-57
2023/05/10 01:52:06;;;;;;;0.50;0.50;;;;;;;11.26;100.00;96338.34;29395;227;63004;-57
2023/05/10 01:52:43;;;;;;;0.50;0.50;;;;;;;11.25;100.00;96329.38;29395;226;63009;-59
2023/05/10 01:53:19;;;;;;;0.50;0.50;;;;;;;11.25;100.00;96334.81;29394;219;64009;-58
2023/05/10 01:53:56;;;;;;;0.50;0.50;;;;;;;11.24;100.00;96335.94;29395;213;63009;-58
2023/05/10 01:54:30;;;;;;;0.50;0.50;;;;;;;11.23;100.00;96333.53;29394;207;64005;-59
2023/05/10 01:55:09;;;;;;;0.50;0.50;;;;;;;11.21;100.00;96333.81;29395;200;63009;-56
2023/05/10 01:55:48;;;;;;;0.50;0.50;;;;;;;11.22;100.00;96338.16;29395;202;63005;-57
2023/05/10 01:56:24;;;;;;;0.50;0.50;;;;;;;11.25;100.00;96342.97;29395;230;63009;-59
2023/05/10 01:57:08;;;;;;;0.50;0.50;;;;;;;11.25;100.00;96337.53;29395;219;63004;-57
2023/05/10 01:57:42;;;;;;;0.50;0.50;;;;;;;11.24;100.00;96329.69;29395;199;63009;-56
2023/05/10 01:58:21;;;;;;;0.50;0.50;;;;;;;11.23;100.00;96337.03;29395;217;63004;-56
2023/05/10 01:58:55;;;;;;;0.40;0.40;;;;;;;11.22;100.00;96335.44;29394;218;64013;-56
2023/05/10 01:59:36;;;;;;;0.50;0.50;;;;;;;11.22;100.00;96338.16;29395;222;63005;-57
2023/05/10 02:00:09;;;;;;;0.50;0.50;;;;;;;11.19;100.00;96333.34;29417;229;63009;-56
2023/05/10 02:00:44;;;;;;;0.47;0.47;;;;;;;11.19;100.00;96338.75;29395;218;63005;-57
2023/05/10 02:01:21;;;;;;;0.50;0.50;;;;;;;11.17;100.00;96332.84;29395;224;63009;-56
2023/05/10 02:01:54;;;;;;;0.50;0.50;;;;;;;11.18;100.00;96337.16;29395;331;63005;-57
2023/05/10 02:02:27;;;;;;;0.40;0.40;;;;;;;11.17;100.00;96340.97;29395;229;63009;-56
2023/05/10 02:03:02;;;;;;;0.50;0.50;;;;;;;11.16;100.00;96339.38;29394;198;64005;-58
2023/05/10 02:03:38;;;;;;;0.50;0.50;;;;;;;11.16;100.00;96344.81;29394;218;64013;-57
2023/05/10 02:04:13;;;;;;;0.50;0.50;;;;;;;11.15;100.00;96348.63;29395;210;63004;-58
2023/05/10 02:04:46;;;;;;;0.50;0.50;;;;;;;11.16;100.00;96344.81;29395;254;63009;-57
2023/05/10 02:05:19;;;;;;;0.50;0.50;;;;;;;11.16;100.00;96346.72;29395;222;63004;-56
2023/05/10 02:05:52;;;;;;;0.50;0.50;;;;;;;11.17;100.00;96351.03;29395;251;63009;-58
2023/05/10 02:06:25;;;;;;;0.50;0.50;;;;;;;11.17;100.00;96345.62;29395;202;63004;-57
2023/05/10 02:06:57;;;;;;;0.50;0.50;;;;;;;11.17;100.00;96346.41;29395;216;63009;-57
2023/05/10 02:07:30;;;;;;;0.50;0.50;;;;;;;11.16;100.00;96344.00;29395;245;63005;-57
2023/05/10 02:08:05;;;;;;;0.47;0.47;;;;;;;11.16;100.00;96344.81;29395;251;63017;-57
2023/05/10 02:08:40;;;;;;;0.50;0.50;;;;;;;11.16;100.00;96350.25;29394;226;64009;-58
2023/05/10 02:09:13;;;;;;;0.45;0.45;;;;;;;11.15;100.00;96343.22;29395;216;63009;-57
2023/05/10 02:09:47;;;;;;;0.50;0.50;;;;;;;11.14;100.00;96340.81;29395;222;63005;-57
2023/05/10 02:10:20;;;;;;;0.50;0.50;;;;;;;11.13;100.00;96344.63;29395;294;63009;-57
2023/05/10 02:10:55;;;;;;;0.50;0.50;;;;;;;11.11;100.00;96342.22;29395;258;63005;-55
2023/05/10 02:11:28;;;;;;;0.50;0.50;;;;;;;11.12;100.00;96346.53;29395;212;63009;-57
2023/05/10 02:12:02;;;;;;;0.50;0.50;;;;;;;11.12;100.00;96340.31;29395;202;63004;-57
2023/05/10 02:12:43;;;;;;;0.50;0.50;;;;;;;11.12;100.00;96348.44;29395;197;63017;-57
2023/05/10 02:13:16;;;;;;;0.50;0.50;;;;;;;11.11;100.00;96346.84;29417;205;63004;-57
2023/05/10 02:13:50;;;;;;;0.50;0.50;;;;;;;11.11;100.00;96338.69;29394;243;64013;-57
2023/05/10 02:14:24;;;;;;;0.40;0.40;;;;;;;11.12;100.00;96338.41;29395;248;63005;-57
2023/05/10 02:14:56;;;;;;;0.50;0.50;;;;;;;11.13;100.00;96345.44;29395;229;63020;-57
2023/05/10 02:15:30;;;;;;;0.50;0.50;;;;;;;11.14;100.00;96341.59;29395;223;63005;-57
2023/05/10 02:16:03;;;;;;;0.50;0.50;;;;;;;11.16;100.00;96342.09;29395;216;63009;-57
2023/05/10 02:16:36;;;;;;;0.50;0.50;;;;;;;11.14;100.00;96341.59;29395;264;63005;-57
2023/05/10 02:17:09;;;;;;;0.43;0.43;;;;;;;11.15;100.00;96343.22;29395;262;63009;-57
2023/05/10 02:17:43;;;;;;;0.50;0.50;;;;;;;11.14;100.00;96336.16;29395;206;63005;-56
2023/05/10 02:18:15;;;;;;;0.45;0.45;;;;;;;11.13;100.00;96339.19;29395;240;63027;-57
2023/05/10 02:18:48;;;;;;;0.40;0.40;;;;;;;11.11;100.00;96335.97;29394;203;64009;-55
2023/05/10 02:19:20;;;;;;;0.50;0.50;;;;;;;11.11;100.00;96344.94;29395;219;63009;-57
2023/05/10 02:19:53;;;;;;;0.50;0.50;;;;;;;11.12;100.00;96341.09;29395;281;63004;-58
2023/05/10 02:20:26;;;;;;;0.50;0.50;;;;;;;11.15;100.00;96342.41;29395;223;63009;-57
2023/05/10 02:20:58;;;;;;;0.50;0.50;;;;;;;11.16;100.00;96350.25;29395;204;63004;-57
2023/05/10 02:21:32;;;;;;;0.50;0.50;;;;;;;11.14;100.00;96341.59;29395;316;63008;-57
2023/05/10 02:22:05;;;;;;;0.45;0.45;;;;;;;11.14;100.00;96347.03;29395;300;63005;-57
2023/05/10 02:22:37;;;;;;;0.50;0.50;;;;;;;11.12;100.00;96341.09;29395;205;63009;-57
2023/05/10 02:23:11;;;;;;;0.50;0.50;;;;;;;11.11;100.00;96344.94;29395;219;63005;-57
2023/05/10 02:23:45;;;;;;;0.50;0.50;;;;;;;11.10;100.00;96348.75;29395;206;63009;-57
2023/05/10 02:24:17;;;;;;;0.50;0.50;;;;;;;11.12;100.00;96351.97;29394;263;64009;-57
2023/05/10 02:24:50;;;;;;;0.50;0.50;;;;;;;11.18;100.00;96348.03;29394;238;64013;-57
2023/05/10 02:25:23;;;;;;;0.50;0.50;;;;;;;11.18;100.00;96350.75;29395;204;63005;-57
2023/05/10 02:25:57;;;;;;;0.50;0.50;;;;;;;11.19;100.00;96349.63;29395;203;63009;-57
2023/05/10 02:26:31;;;;;;;0.40;0.40;;;;;;;11.19;100.00;96349.63;29395;210;63004;-57
2023/05/10 02:27:04;;;;;;;0.40;0.40;;;;;;;11.19;100.00;96356.97;29395;227;63009;-58
2023/05/10 02:27:38;;;;;;;0.40;0.40;;;;;;;11.18;100.00;96352.66;29395;219;63004;-57
2023/05/10 02:28:11;;;;;;;0.50;0.50;;;;;;;11.16;100.00;96350.25;29395;233;63009;-57
2023/05/10 02:28:43;;;;;;;0.40;0.40;;;;;;;11.16;100.00;96355.66;29395;211;63004;-57
2023/05/10 02:29:16;;;;;;;0.40;0.40;;;;;;;11.16;100.00;96354.88;29395;216;63008;-57
2023/05/10 02:29:51;;;;;;;0.50;0.50;;;;;;;11.17;100.00;96357.28;29395;213;63005;-57
2023/05/10 02:30:23;;;;;;;0.50;0.50;;;;;;;11.17;100.00;96356.47;29394;271;64014;-58
2023/05/10 02:30:56;;;;;;;0.50;0.50;;;;;;;11.17;100.00;96362.72;29395;254;63005;-57
2023/05/10 02:31:27;;;;;;;0.50;0.50;;;;;;;11.16;100.00;96355.66;29395;222;63009;-56
2023/05/10 02:32:00;;;;;;;0.50;0.50;;;;;;;11.14;100.00;96362.53;29395;206;63005;-57
2023/05/10 02:32:31;;;;;;;0.40;0.40;;;;;;;11.12;100.00;96362.81;29395;212;63009;-57
2023/05/10 02:33:05;;;;;;;0.50;0.50;;;;;;;11.12;100.00;96368.25;29395;228;63005;-56
2023/05/10 02:33:40;;;;;;;0.50;0.50;;;;;;;11.12;100.00;96370.97;29395;223;63009;-57
2023/05/10 02:34:12;;;;;;;0.47;0.47;;;;;;;11.13;100.00;96367.16;29395;244;63004;-58
2023/05/10 02:34:51;;;;;;;0.50;0.50;;;;;;;11.12;100.00;96365.53;29394;227;64013;-56
2023/05/10 02:35:24;;;;;;;0.50;0.50;;;;;;;11.11;100.00;96366.66;29395;215;63004;-57
2023/05/10 02:35:57;;;;;;;0.50;0.50;;;;;;;11.11;100.00;96366.66;29395;219;63009;-57
2023/05/10 02:36:29;;;;;;;0.50;0.50;;;;;;;11.09;100.00;96360.72;29395;202;63004;-57
2023/05/10 02:37:03;;;;;;;0.43;0.43;;;;;;;11.09;100.00;96363.44;29395;210;63009;-55
2023/05/10 02:37:35;;;;;;;0.50;0.50;;;;;;;11.10;100.00;96373.19;29395;216;63005;-57
2023/05/10 02:38:09;;;;;;;0.40;0.40;;;;;;;11.10;100.00;96367.75;29395;269;63009;-56
2023/05/10 02:38:41;;;;;;;0.50;0.50;;;;;;;11.10;100.00;96367.75;29395;269;63005;-56
2023/05/10 02:39:14;;;;;;;0.40;0.40;;;;;;;11.10;100.00;96367.75;29395;211;63009;-55
2023/05/10 02:39:50;;;;;;;0.50;0.50;;;;;;;11.11;100.00;96363.94;29394;239;64009;-57
2023/05/10 02:40:23;;;;;;;0.40;0.40;;;;;;;11.11;100.00;96369.38;29395;222;63009;-59
2023/05/10 02:40:56;;;;;;;0.40;0.40;;;;;;;11.11;100.00;96365.84;29395;204;63005;-57
2023/05/10 02:41:30;;;;;;;0.40;0.40;;;;;;;11.11;100.00;96369.38;29395;215;63009;-57
2023/05/10 02:42:02;;;;;;;0.40;0.40;;;;;;;11.13;100.00;96372.59;29395;206;63004;-58
2023/05/10 02:42:37;;;;;;;0.40;0.40;;;;;;;11.13;100.00;96366.34;29395;246;63016;-58
2023/05/10 02:43:13;;;;;;;0.47;0.47;;;;;;;11.12;100.00;96370.97;29395;233;63004;-57
2023/05/10 02:43:46;;;;;;;0.40;0.40;;;;;;;11.12;100.00;96373.69;29395;234;63025;-57
2023/05/10 02:44:22;;;;;;;0.50;0.50;;;;;;;11.12;100.00;96367.47;29395;217;63019;-57
2023/05/10 02:45:01;;;;;;;0.50;0.50;;;;;;;11.11;100.00;96372.09;29394;218;64014;-57
2023/05/10 02:45:35;;;;;;;0.50;0.50;;;;;;;11.11;100.00;96368.56;29394;230;64009;-56
2023/05/10 02:46:07;;;;;;;0.50;0.50;;;;;;;11.12;100.00;96368.25;29395;202;63009;-57
2023/05/10 02:46:38;;;;;;;0.50;0.50;;;;;;;11.13;100.00;96378.00;29395;220;63005;-57
2023/05/10 02:47:09;;;;;;;0.50;0.50;;;;;;;11.13;100.00;96367.16;29395;199;63009;-57
2023/05/10 02:47:41;;;;;;;0.50;0.50;;;;;;;11.12;100.00;96373.69;29395;204;63005;-57